createdAt,value
2023-02-05T00:01:03.959Z,100674.37
2023-02-05T00:03:35.814Z,100676.55
2023-02-05T00:06:08.091Z,100676.29
2023-02-05T00:08:37.799Z,100681.48
2023-02-05T00:11:10.523Z,100682.43
2023-02-05T00:13:41.680Z,100681.12
2023-02-05T00:16:12.464Z,100688.73
2023-02-05T00:18:41.756Z,100686.09
2023-02-05T00:21:11.767Z,100684.42
2023-02-05T00:23:40.861Z,100682.94
2023-02-05T00:26:11.211Z,100682.11
2023-02-05T00:28:40.948Z,100679.10
2023-02-05T00:31:16.140Z,100678.42
2023-02-05T00:33:45.524Z,100677.11
2023-02-05T00:36:14.870Z,100673.88
2023-02-05T00:38:44.488Z,100675.51
2023-02-05T00:41:14.823Z,100676.92
2023-02-05T00:43:44.285Z,100670.00
2023-02-05T00:46:13.500Z,100677.77
2023-02-05T00:48:43.036Z,100682.20
2023-02-05T00:51:12.162Z,100680.34
2023-02-05T00:53:42.068Z,100685.24
2023-02-05T00:56:11.074Z,100685.27
2023-02-05T00:58:40.487Z,100680.81
2023-02-05T01:01:09.609Z,100686.93
2023-02-05T01:03:39.375Z,100683.39
2023-02-05T01:06:08.783Z,100678.05
2023-02-05T01:08:38.953Z,100684.80
2023-02-05T01:11:09.952Z,100682.16
2023-02-05T01:13:40.357Z,100686.18
2023-02-05T01:16:11.110Z,100682.79
2023-02-05T01:18:41.177Z,100688.70
2023-02-05T01:21:10.077Z,100688.67
2023-02-05T01:23:39.949Z,100684.43
2023-02-05T01:26:09.814Z,100678.80
2023-02-05T01:28:39.816Z,100671.92
2023-02-05T01:31:08.948Z,100669.77
2023-02-05T01:33:37.950Z,100671.66
2023-02-05T01:36:07.452Z,100682.20
2023-02-05T01:38:36.378Z,100679.04
2023-02-05T01:41:07.476Z,100682.00
2023-02-05T01:43:36.860Z,100681.32
2023-02-05T01:46:32.407Z,100681.66
2023-02-05T01:49:01.563Z,100681.52
2023-02-05T01:51:31.107Z,100682.96
2023-02-05T01:54:00.107Z,100682.75
2023-02-05T01:56:59.560Z,100682.03
2023-02-05T01:59:30.313Z,100685.29
2023-02-05T02:02:01.374Z,100688.95
2023-02-05T02:04:42.798Z,100691.29
2023-02-05T02:07:14.346Z,100691.89
2023-02-05T02:09:43.552Z,100688.95
2023-02-05T02:12:14.819Z,100687.45
2023-02-05T02:14:45.447Z,100686.53
2023-02-05T02:17:14.524Z,100684.09
2023-02-05T02:20:03.507Z,100687.45
2023-02-05T02:22:41.319Z,100686.77
2023-02-05T02:25:34.722Z,100688.63
2023-02-05T02:28:22.216Z,100689.55
2023-02-05T02:31:13.286Z,100691.30
2023-02-05T02:33:47.132Z,100686.50
2023-02-05T02:36:26.994Z,100683.16
2023-02-05T02:39:24.133Z,100683.52
2023-02-05T02:42:17.059Z,100689.34
2023-02-05T02:44:54.374Z,100689.07
2023-02-05T02:47:25.904Z,100691.13
2023-02-05T02:50:06.618Z,100696.15
2023-02-05T02:52:37.591Z,100694.52
2023-02-05T02:55:10.123Z,100693.06
2023-02-05T02:57:41.469Z,100698.27
2023-02-05T03:00:16.194Z,100701.31
2023-02-05T03:02:46.367Z,100704.70
2023-02-05T03:05:16.921Z,100709.47
2023-02-05T03:07:53.180Z,100710.89
2023-02-05T03:10:31.162Z,100709.72
2023-02-05T03:13:00.342Z,100705.84
2023-02-05T03:15:29.754Z,100707.14
2023-02-05T03:17:58.850Z,100710.09
2023-02-05T03:20:29.246Z,100718.58
2023-02-05T03:22:58.662Z,100711.98
2023-02-05T03:25:28.774Z,100713.90
2023-02-05T03:27:58.983Z,100710.80
2023-02-05T03:30:54.074Z,100712.48
2023-02-05T03:33:35.051Z,100714.95
2023-02-05T03:36:09.897Z,100715.50
2023-02-05T03:39:17.174Z,100710.80
2023-02-05T03:41:58.304Z,100712.89
2023-02-05T03:45:12.729Z,100709.77
2023-02-05T03:47:52.267Z,100712.55
2023-02-05T03:50:30.481Z,100716.98
2023-02-05T03:53:16.086Z,100718.56
2023-02-05T03:56:12.770Z,100720.28
2023-02-05T03:58:53.437Z,100723.54
2023-02-05T04:01:22.708Z,100724.23
2023-02-05T04:03:52.355Z,100724.33
2023-02-05T04:06:21.418Z,100718.33
2023-02-05T04:08:50.733Z,100719.89
2023-02-05T04:11:20.083Z,100726.08
2023-02-05T04:13:49.877Z,100725.98
2023-02-05T04:16:19.355Z,100734.64
2023-02-05T04:18:48.300Z,100734.31
2023-02-05T04:21:17.794Z,100732.53
2023-02-05T04:23:46.963Z,100738.77
2023-02-05T04:26:16.346Z,100732.40
2023-02-05T04:28:50.542Z,100731.89
2023-02-05T04:31:19.742Z,100735.04
2023-02-05T04:33:49.567Z,100738.51
2023-02-05T04:36:19.270Z,100738.58
2023-02-05T04:38:48.561Z,100737.81
2023-02-05T04:41:17.359Z,100737.70
2023-02-05T04:43:46.512Z,100734.48
2023-02-05T04:46:15.348Z,100731.06
2023-02-05T04:48:44.789Z,100736.02
2023-02-05T04:51:14.224Z,100736.13
2023-02-05T04:53:42.976Z,100735.71
2023-02-05T04:56:16.482Z,100739.11
2023-02-05T04:58:45.413Z,100740.77
2023-02-05T05:01:19.328Z,100742.38
2023-02-05T05:03:48.200Z,100750.84
2023-02-05T05:06:17.491Z,100749.73
2023-02-05T05:08:46.462Z,100752.13
2023-02-05T05:11:19.853Z,100753.58
2023-02-05T05:13:50.258Z,100754.17
2023-02-05T05:16:19.193Z,100755.36
2023-02-05T05:18:48.143Z,100753.80
2023-02-05T05:21:17.041Z,100756.83
2023-02-05T05:23:45.867Z,100756.81
2023-02-05T05:26:14.632Z,100757.98
2023-02-05T05:28:43.586Z,100761.16
2023-02-05T05:31:17.247Z,100762.21
2023-02-05T05:33:46.356Z,100761.33
2023-02-05T05:36:15.295Z,100765.30
2023-02-05T05:38:44.374Z,100765.42
2023-02-05T05:41:40.357Z,100777.29
2023-02-05T05:44:09.402Z,100779.16
2023-02-05T05:46:38.151Z,100780.70
2023-02-05T05:49:06.884Z,100785.23
2023-02-05T05:51:35.770Z,100784.15
2023-02-05T05:54:04.778Z,100786.88
2023-02-05T05:56:34.114Z,100789.79
2023-02-05T05:59:03.325Z,100794.29
2023-02-05T06:01:32.202Z,100797.36
2023-02-05T06:04:03.912Z,100799.32
2023-02-05T06:06:33.781Z,100801.70
2023-02-05T06:09:02.936Z,100797.50
2023-02-05T06:11:31.949Z,100798.58
2023-02-05T06:14:00.890Z,100799.55
2023-02-05T06:16:30.030Z,100804.48
2023-02-05T06:18:59.844Z,100807.23
2023-02-05T06:21:29.255Z,100809.63
2023-02-05T06:23:58.198Z,100813.45
2023-02-05T06:26:27.403Z,100812.80
2023-02-05T06:28:57.650Z,100809.14
2023-02-05T06:31:26.768Z,100811.05
2023-02-05T06:33:56.011Z,100813.08
2023-02-05T06:36:25.368Z,100812.98
2023-02-05T06:38:54.257Z,100815.02
2023-02-05T06:41:23.054Z,100818.68
2023-02-05T06:43:52.344Z,100824.28
2023-02-05T06:46:21.656Z,100825.48
2023-02-05T06:48:51.260Z,100826.70
2023-02-05T06:51:20.342Z,100827.30
2023-02-05T06:53:53.056Z,100828.27
2023-02-05T06:56:21.735Z,100830.40
2023-02-05T06:58:51.077Z,100833.86
2023-02-05T07:01:20.035Z,100833.02
2023-02-05T07:03:49.958Z,100833.84
2023-02-05T07:06:19.458Z,100834.38
2023-02-05T07:08:48.197Z,100832.45
2023-02-05T07:11:17.424Z,100833.25
2023-02-05T07:13:46.248Z,100837.15
2023-02-05T07:16:15.568Z,100838.90
2023-02-05T07:18:44.547Z,100840.04
2023-02-05T07:21:19.038Z,100841.04
2023-02-05T07:23:47.853Z,100844.22
2023-02-05T07:26:17.370Z,100847.88
2023-02-05T07:28:46.321Z,100851.48
2023-02-05T07:31:17.293Z,100854.35
2023-02-05T07:33:47.157Z,100857.94
2023-02-05T07:36:18.202Z,100858.99
2023-02-05T07:38:47.446Z,100859.66
2023-02-05T07:41:16.632Z,100860.50
2023-02-05T07:43:45.848Z,100858.15
2023-02-05T07:46:15.284Z,100855.05
2023-02-05T07:48:44.352Z,100852.30
2023-02-05T07:51:21.386Z,100855.35
2023-02-05T07:53:50.365Z,100852.95
2023-02-05T07:56:22.059Z,100855.77
2023-02-05T07:58:50.674Z,100862.91
2023-02-05T08:01:20.272Z,100865.77
2023-02-05T08:03:49.197Z,100871.30
2023-02-05T08:06:18.138Z,100869.59
2023-02-05T08:08:49.477Z,100872.30
2023-02-05T08:11:18.378Z,100877.11
2023-02-05T08:13:47.764Z,100876.27
2023-02-05T08:16:18.023Z,100878.33
2023-02-05T08:18:50.831Z,100885.02
2023-02-05T08:21:22.208Z,100887.58
2023-02-05T08:23:51.590Z,100889.96
2023-02-05T08:26:20.700Z,100888.52
2023-02-05T08:28:49.736Z,100888.63
2023-02-05T08:31:19.120Z,100892.27
2023-02-05T08:33:48.562Z,100898.55
2023-02-05T08:36:17.915Z,100905.38
2023-02-05T08:38:47.295Z,100908.34
2023-02-05T08:41:17.210Z,100912.94
2023-02-05T08:43:47.850Z,100908.69
2023-02-05T08:46:19.633Z,100912.25
2023-02-05T08:48:48.782Z,100911.19
2023-02-05T08:51:18.096Z,100913.08
2023-02-05T08:53:46.927Z,100916.27
2023-02-05T08:56:19.862Z,100919.09
2023-02-05T08:58:49.104Z,100920.98
2023-02-05T09:01:18.460Z,100927.24
2023-02-05T09:03:47.613Z,100926.17
2023-02-05T09:06:16.993Z,100926.92
2023-02-05T09:08:45.747Z,100928.80
2023-02-05T09:11:17.387Z,100930.68
2023-02-05T09:13:46.231Z,100931.34
2023-02-05T09:16:16.388Z,100932.69
2023-02-05T09:18:45.240Z,100935.16
2023-02-05T09:21:14.218Z,100936.70
2023-02-05T09:23:43.161Z,100935.05
2023-02-05T09:26:12.097Z,100939.65
2023-02-05T09:28:41.453Z,100938.02
2023-02-05T09:31:16.838Z,100937.23
2023-02-05T09:33:46.499Z,100939.27
2023-02-05T09:36:21.003Z,100936.88
2023-02-05T09:38:50.528Z,100934.64
2023-02-05T09:41:33.256Z,100929.76
2023-02-05T09:44:12.108Z,100933.36
2023-02-05T09:46:59.261Z,100930.13
2023-02-05T09:49:35.563Z,100931.73
2023-02-05T09:52:39.701Z,100930.46
2023-02-05T09:55:21.830Z,100927.36
2023-02-05T09:57:52.648Z,100928.52
2023-02-05T10:00:28.286Z,100926.89
2023-02-05T10:03:22.088Z,100928.06
2023-02-05T10:06:09.926Z,100925.73
2023-02-05T10:08:51.298Z,100933.58
2023-02-05T10:11:44.461Z,100935.43
2023-02-05T10:14:27.293Z,100933.39
2023-02-05T10:17:12.794Z,100932.08
2023-02-05T10:20:06.498Z,100935.11
2023-02-05T10:23:05.856Z,100938.61
2023-02-05T10:26:01.265Z,100943.04
2023-02-05T10:28:55.432Z,100942.23
2023-02-05T10:31:37.158Z,100947.49
2023-02-05T10:34:20.351Z,100953.70
2023-02-05T10:36:51.919Z,100951.84
2023-02-05T10:39:23.520Z,100961.55
2023-02-05T10:42:05.911Z,100965.66
2023-02-05T10:44:43.267Z,100966.09
2023-02-05T10:47:59.321Z,100968.77
2023-02-05T10:50:49.552Z,100967.54
2023-02-05T10:53:23.282Z,100968.45
2023-02-05T10:55:52.163Z,100970.95
2023-02-05T10:58:41.266Z,100975.23
2023-02-05T11:01:16.340Z,100975.91
2023-02-05T11:04:07.535Z,100976.33
2023-02-05T11:06:47.919Z,100980.75
2023-02-05T11:09:26.876Z,100980.70
2023-02-05T11:11:57.766Z,100987.34
2023-02-05T11:14:37.795Z,100988.55
2023-02-05T11:17:17.835Z,100989.98
2023-02-05T11:19:54.863Z,100990.42
2023-02-05T11:22:29.676Z,100986.56
2023-02-05T11:25:06.049Z,100990.09
2023-02-05T11:27:35.820Z,100987.71
2023-02-05T11:31:04.655Z,100989.90
2023-02-05T11:33:26.059Z,100988.55
2023-02-05T11:36:05.935Z,100986.17
2023-02-05T11:38:43.912Z,100982.21
2023-02-05T11:41:15.099Z,100986.52
2023-02-05T11:43:50.067Z,100985.01
2023-02-05T11:46:20.942Z,100987.66
2023-02-05T11:48:54.109Z,100990.52
2023-02-05T11:51:35.442Z,100999.11
2023-02-05T11:54:13.191Z,101000.83
2023-02-05T11:56:42.108Z,101003.36
2023-02-05T11:59:24.463Z,101003.64
2023-02-05T12:01:53.333Z,101011.27
2023-02-05T12:04:22.188Z,101015.21
2023-02-05T12:06:55.956Z,101015.70
2023-02-05T12:09:26.024Z,101015.21
2023-02-05T12:12:04.379Z,101015.14
2023-02-05T12:14:36.811Z,101019.35
2023-02-05T12:17:24.956Z,101022.09
2023-02-05T12:19:59.450Z,101016.89
2023-02-05T12:23:02.781Z,101019.70
2023-02-05T12:25:37.722Z,101013.61
2023-02-05T12:28:23.848Z,101011.05
2023-02-05T12:31:15.758Z,101019.49
2023-02-05T12:34:10.806Z,101020.27
2023-02-05T12:36:45.288Z,101021.15
2023-02-05T12:39:19.766Z,101021.73
2023-02-05T12:41:57.494Z,101017.47
2023-02-05T12:44:58.089Z,101021.51
2023-02-05T12:47:47.578Z,101020.98
2023-02-05T12:50:49.362Z,101022.17
2023-02-05T12:53:44.280Z,101026.11
2023-02-05T12:56:25.255Z,101021.41
2023-02-05T12:59:02.973Z,101024.30
2023-02-05T13:01:42.575Z,101029.95
2023-02-05T13:04:21.032Z,101031.95
2023-02-05T13:07:12.087Z,101029.19
2023-02-05T13:10:02.663Z,101029.34
2023-02-05T13:12:38.168Z,101028.38
2023-02-05T13:15:24.057Z,101032.05
2023-02-05T13:18:14.512Z,101033.85
2023-02-05T13:21:04.041Z,101029.99
2023-02-05T13:23:51.878Z,101029.61
2023-02-05T13:26:58.726Z,101033.45
2023-02-05T13:29:30.538Z,101038.13
2023-02-05T13:32:15.248Z,101040.45
2023-02-05T13:34:45.417Z,101037.79
2023-02-05T13:37:30.857Z,101042.11
2023-02-05T13:40:06.224Z,101046.73
2023-02-05T13:43:03.463Z,101054.45
2023-02-05T13:45:57.485Z,101060.42
2023-02-05T13:48:47.854Z,101060.04
2023-02-05T13:51:39.487Z,101063.10
2023-02-05T13:54:36.205Z,101068.00
2023-02-05T13:57:52.681Z,101067.80
2023-02-05T14:00:21.491Z,101072.52
2023-02-05T14:02:53.893Z,101075.18
2023-02-05T14:05:30.226Z,101080.66
2023-02-05T14:08:02.373Z,101079.33
2023-02-05T14:10:33.276Z,101084.99
2023-02-05T14:13:25.870Z,101087.19
2023-02-05T14:15:54.972Z,101093.05
2023-02-05T14:18:45.230Z,101095.40
2023-02-05T14:21:32.361Z,101096.92
2023-02-05T14:24:22.854Z,101100.61
2023-02-05T14:26:53.682Z,101101.58
2023-02-05T14:29:48.603Z,101103.66
2023-02-05T14:32:26.422Z,101105.31
2023-02-05T14:35:00.124Z,101110.27
2023-02-05T14:37:32.361Z,101113.17
2023-02-05T14:40:29.604Z,101120.74
2023-02-05T14:43:22.006Z,101119.19
2023-02-05T14:45:52.034Z,101123.95
2023-02-05T14:48:31.486Z,101125.59
2023-02-05T14:51:07.158Z,101129.73
2023-02-05T14:53:36.862Z,101135.38
2023-02-05T14:56:05.673Z,101133.80
2023-02-05T14:58:36.622Z,101131.56
2023-02-05T15:01:30.647Z,101128.86
2023-02-05T15:04:00.744Z,101131.77
2023-02-05T15:06:30.537Z,101138.92
2023-02-05T15:09:06.317Z,101137.33
2023-02-05T15:11:56.960Z,101144.63
2023-02-05T15:14:33.244Z,101149.35
2023-02-05T15:17:10.594Z,101151.20
2023-02-05T15:19:44.721Z,101151.71
2023-02-05T15:22:26.602Z,101156.44
2023-02-05T15:24:55.360Z,101160.31
2023-02-05T15:27:46.022Z,101163.05
2023-02-05T15:30:20.622Z,101164.59
2023-02-05T15:33:02.530Z,101165.49
2023-02-05T15:35:33.658Z,101166.92
2023-02-05T15:38:15.716Z,101167.28
2023-02-05T15:40:44.673Z,101165.81
2023-02-05T15:43:25.619Z,101166.42
2023-02-05T15:46:06.043Z,101172.20
2023-02-05T15:48:37.093Z,101179.24
2023-02-05T15:51:11.875Z,101175.67
2023-02-05T15:53:51.981Z,101176.28
2023-02-05T15:56:20.853Z,101175.85
2023-02-05T15:58:51.795Z,101176.77
2023-02-05T16:01:30.739Z,101179.23
2023-02-05T16:03:59.992Z,101188.45
2023-02-05T16:06:30.265Z,101190.06
2023-02-05T16:08:59.773Z,101196.11
2023-02-05T16:11:33.308Z,101204.25
2023-02-05T16:14:23.815Z,101206.50
2023-02-05T16:17:06.317Z,101208.04
2023-02-05T16:19:56.070Z,101213.01
2023-02-05T16:22:45.808Z,101219.70
2023-02-05T16:25:52.391Z,101222.04
2023-02-05T16:28:23.904Z,101227.89
2023-02-05T16:30:53.635Z,101231.29
2023-02-05T16:33:38.733Z,101238.99
2023-02-05T16:36:13.741Z,101234.95
2023-02-05T16:38:42.916Z,101240.63
2023-02-05T16:41:26.448Z,101245.25
2023-02-05T16:43:56.797Z,101250.18
2023-02-05T16:46:30.776Z,101252.51
2023-02-05T16:49:01.319Z,101252.85
2023-02-05T16:51:45.887Z,101260.13
2023-02-05T16:54:14.888Z,101262.80
2023-02-05T16:56:59.904Z,101267.67
2023-02-05T16:59:34.719Z,101272.77
2023-02-05T17:02:03.999Z,101276.52
2023-02-05T17:04:38.156Z,101282.81
2023-02-05T17:07:17.278Z,101287.58
2023-02-05T17:09:46.353Z,101290.91
2023-02-05T17:12:47.795Z,101295.50
2023-02-05T17:15:26.362Z,101304.65
2023-02-05T17:17:57.881Z,101309.27
2023-02-05T17:20:27.877Z,101308.02
2023-02-05T17:23:05.937Z,101311.56
2023-02-05T17:26:04.514Z,101316.30
2023-02-05T17:28:38.632Z,101314.88
2023-02-05T17:31:07.854Z,101323.77
2023-02-05T17:33:38.082Z,101328.33
2023-02-05T17:36:12.419Z,101329.89
2023-02-05T17:38:41.593Z,101327.70
2023-02-05T17:41:42.197Z,101331.88
2023-02-05T17:44:16.083Z,101328.03
2023-02-05T17:46:45.271Z,101331.50
2023-02-05T17:49:14.232Z,101334.19
2023-02-05T17:51:44.394Z,101327.13
2023-02-05T17:54:21.037Z,101328.08
2023-02-05T17:56:51.564Z,101328.29
2023-02-05T17:59:22.394Z,101332.06
2023-02-05T18:01:51.845Z,101330.72
2023-02-05T18:04:21.315Z,101330.73
2023-02-05T18:06:50.939Z,101338.92
2023-02-05T18:09:20.502Z,101337.16
2023-02-05T18:11:51.030Z,101338.73
2023-02-05T18:14:20.442Z,101337.88
2023-02-05T18:16:49.624Z,101342.52
2023-02-05T18:19:18.825Z,101346.98
2023-02-05T18:21:48.836Z,101352.64
2023-02-05T18:24:18.535Z,101351.45
2023-02-05T18:26:52.754Z,101357.10
2023-02-05T18:29:22.458Z,101363.70
2023-02-05T18:31:51.699Z,101359.89
2023-02-05T18:34:21.048Z,101366.29
2023-02-05T18:36:50.452Z,101368.70
2023-02-05T18:39:19.369Z,101373.70
2023-02-05T18:41:48.224Z,101374.08
2023-02-05T18:44:17.486Z,101376.36
2023-02-05T18:46:46.408Z,101373.54
2023-02-05T18:49:15.473Z,101373.00
2023-02-05T18:51:44.708Z,101369.17
2023-02-05T18:54:13.538Z,101366.93
2023-02-05T18:56:42.299Z,101370.86
2023-02-05T18:59:14.148Z,101376.38
2023-02-05T19:01:43.108Z,101374.98
2023-02-05T19:04:14.283Z,101378.35
2023-02-05T19:06:52.553Z,101374.27
2023-02-05T19:09:22.246Z,101377.48
2023-02-05T19:11:52.240Z,101379.84
2023-02-05T19:14:22.837Z,101385.69
2023-02-05T19:16:51.814Z,101386.56
2023-02-05T19:19:22.779Z,101392.40
2023-02-05T19:21:56.231Z,101396.13
2023-02-05T19:24:25.889Z,101397.88
2023-02-05T19:26:56.880Z,101402.92
2023-02-05T19:29:27.260Z,101407.95
2023-02-05T19:31:59.128Z,101407.63
2023-02-05T19:34:29.385Z,101408.86
2023-02-05T19:36:58.978Z,101411.45
2023-02-05T19:39:28.639Z,101415.67
2023-02-05T19:41:57.542Z,101422.79
2023-02-05T19:44:27.949Z,101424.96
2023-02-05T19:46:58.442Z,101424.77
2023-02-05T19:49:27.949Z,101424.42
2023-02-05T19:51:59.982Z,101426.21
2023-02-05T19:54:30.101Z,101430.61
2023-02-05T19:57:00.309Z,101432.58
2023-02-05T19:59:29.455Z,101438.59
2023-02-05T20:01:58.498Z,101440.77
2023-02-05T20:04:29.061Z,101442.04
2023-02-05T20:06:59.564Z,101445.23
2023-02-05T20:09:28.760Z,101444.21
2023-02-05T20:11:57.527Z,101443.88
2023-02-05T20:14:27.405Z,101450.55
2023-02-05T20:16:56.441Z,101449.48
2023-02-05T20:19:25.275Z,101450.36
2023-02-05T20:21:54.815Z,101455.14
2023-02-05T20:24:23.874Z,101456.57
2023-02-05T20:26:53.542Z,101462.70
2023-02-05T20:29:41.576Z,101463.55
2023-02-05T20:32:10.706Z,101463.70
2023-02-05T20:34:45.169Z,101463.52
2023-02-05T20:37:14.237Z,101468.64
2023-02-05T20:39:45.290Z,101472.73
2023-02-05T20:42:14.630Z,101475.35
2023-02-05T20:44:43.788Z,101477.61
2023-02-05T20:47:13.839Z,101482.05
2023-02-05T20:49:42.774Z,101481.34
2023-02-05T20:52:11.968Z,101485.10
2023-02-05T20:54:42.223Z,101486.52
2023-02-05T20:57:11.247Z,101488.54
2023-02-05T20:59:40.354Z,101489.63
2023-02-05T21:02:10.229Z,101491.67
2023-02-05T21:04:40.086Z,101495.05
2023-02-05T21:07:08.844Z,101501.66
2023-02-05T21:09:39.802Z,101504.74
2023-02-05T21:12:08.766Z,101506.56
2023-02-05T21:14:39.387Z,101511.90
2023-02-05T21:17:10.873Z,101509.67
2023-02-05T21:19:39.806Z,101509.09
2023-02-05T21:22:09.073Z,101511.01
2023-02-05T21:24:38.681Z,101513.40
2023-02-05T21:27:08.083Z,101515.07
2023-02-05T21:29:38.117Z,101517.02
2023-02-05T21:32:08.469Z,101520.99
2023-02-05T21:34:37.391Z,101519.92
2023-02-05T21:37:06.216Z,101515.73
2023-02-05T21:39:36.747Z,101518.44
2023-02-05T21:42:05.819Z,101523.89
2023-02-05T21:44:34.611Z,101525.23
2023-02-05T21:47:03.844Z,101528.58
2023-02-05T21:49:32.626Z,101528.41
2023-02-05T21:52:01.585Z,101532.45
2023-02-05T21:54:31.048Z,101537.08
2023-02-05T21:56:59.793Z,101541.30
2023-02-05T21:59:28.720Z,101543.33
2023-02-05T22:01:57.746Z,101545.96
2023-02-05T22:04:26.517Z,101548.42
2023-02-05T22:06:55.400Z,101549.84
2023-02-05T22:09:24.463Z,101550.92
2023-02-05T22:11:53.544Z,101552.88
2023-02-05T22:14:22.425Z,101554.09
2023-02-05T22:16:52.249Z,101557.05
2023-02-05T22:19:25.386Z,101557.81
2023-02-05T22:21:54.344Z,101555.52
2023-02-05T22:24:23.421Z,101556.93
2023-02-05T22:26:52.330Z,101559.14
2023-02-05T22:29:21.385Z,101556.19
2023-02-05T22:31:51.900Z,101557.28
2023-02-05T22:34:20.867Z,101562.10
2023-02-05T22:36:50.026Z,101561.94
2023-02-05T22:39:18.984Z,101559.24
2023-02-05T22:41:48.060Z,101557.46
2023-02-05T22:44:17.061Z,101556.98
2023-02-05T22:46:46.329Z,101555.77
2023-02-05T22:49:15.770Z,101566.21
2023-02-05T22:51:44.882Z,101566.48
2023-02-05T22:54:14.195Z,101569.86
2023-02-05T22:56:43.450Z,101570.73
2023-02-05T22:59:12.496Z,101568.86
2023-02-05T23:01:41.929Z,101565.41
2023-02-05T23:04:10.919Z,101569.46
2023-02-05T23:06:42.177Z,101571.17
2023-02-05T23:09:16.374Z,101569.68
2023-02-05T23:11:49.372Z,101574.58
2023-02-05T23:14:18.848Z,101581.44
2023-02-05T23:16:48.123Z,101585.11
2023-02-05T23:19:19.018Z,101587.73
2023-02-05T23:21:48.440Z,101591.89
2023-02-05T23:24:17.497Z,101595.17
2023-02-05T23:26:48.453Z,101593.31
2023-02-05T23:29:17.561Z,101592.50
2023-02-05T23:31:46.456Z,101595.53
2023-02-05T23:34:15.537Z,101601.42
2023-02-05T23:36:44.867Z,101603.30
2023-02-05T23:39:14.223Z,101604.60
2023-02-05T23:41:43.503Z,101608.02
2023-02-05T23:44:14.348Z,101604.77
2023-02-05T23:46:44.203Z,101605.23
2023-02-05T23:49:13.712Z,101603.58
2023-02-05T23:51:43.629Z,101610.08
2023-02-05T23:54:12.946Z,101614.11
2023-02-05T23:56:41.999Z,101615.30
2023-02-05T23:59:11.942Z,101610.51
